createdAt,value
2022-12-15T00:00:11.072Z,88.45
2022-12-15T00:01:14.168Z,88.20
2022-12-15T00:02:14.394Z,87.71
2022-12-15T00:03:13.027Z,87.78
2022-12-15T00:04:13.118Z,87.19
2022-12-15T00:05:13.529Z,88.13
2022-12-15T00:06:13.747Z,87.82
2022-12-15T00:07:15.099Z,88.03
2022-12-15T00:08:14.266Z,88.57
2022-12-15T00:09:14.633Z,86.84
2022-12-15T00:10:14.014Z,87.26
2022-12-15T00:11:14.345Z,86.46
2022-12-15T00:12:16.530Z,87.45
2022-12-15T00:13:15.833Z,87.65
2022-12-15T00:14:16.256Z,88.80
2022-12-15T00:15:16.408Z,89.11
2022-12-15T00:16:16.632Z,88.59
2022-12-15T00:17:17.967Z,89.22
2022-12-15T00:18:17.146Z,89.05
2022-12-15T00:19:18.546Z,88.90
2022-12-15T00:20:17.721Z,89.53
2022-12-15T00:21:18.138Z,89.22
2022-12-15T00:22:19.497Z,89.59
2022-12-15T00:23:18.713Z,89.59
2022-12-15T00:24:19.039Z,89.59
2022-12-15T00:25:19.289Z,88.82
2022-12-15T00:26:18.668Z,87.88
2022-12-15T00:27:18.973Z,87.51
2022-12-15T00:28:21.174Z,87.61
2022-12-15T00:29:19.553Z,88.59
2022-12-15T00:30:21.746Z,88.45
2022-12-15T00:31:22.021Z,88.55
2022-12-15T00:32:20.394Z,88.03
2022-12-15T00:33:22.572Z,88.89
2022-12-15T00:34:22.737Z,87.95
2022-12-15T00:35:22.923Z,87.74
2022-12-15T00:36:23.094Z,87.49
2022-12-15T00:37:23.762Z,87.24
2022-12-15T00:38:23.951Z,86.10
2022-12-15T00:39:22.436Z,85.26
2022-12-15T00:40:22.748Z,86.83
2022-12-15T00:41:23.067Z,86.68
2022-12-15T00:42:24.255Z,85.12
2022-12-15T00:43:23.629Z,85.64
2022-12-15T00:44:23.958Z,85.96
2022-12-15T00:45:24.264Z,85.88
2022-12-15T00:46:26.523Z,83.69
2022-12-15T00:47:26.569Z,83.69
2022-12-15T00:48:26.744Z,83.97
2022-12-15T00:49:27.459Z,85.02
2022-12-15T00:50:27.636Z,86.45
2022-12-15T00:51:27.814Z,87.07
2022-12-15T00:52:28.182Z,87.18
2022-12-15T00:53:26.816Z,87.28
2022-12-15T00:54:28.877Z,87.07
2022-12-15T00:55:29.067Z,87.60
2022-12-15T00:56:29.268Z,87.70
2022-12-15T00:57:29.448Z,88.39
2022-12-15T00:58:28.202Z,87.73
2022-12-15T00:59:30.424Z,87.30
2022-12-15T01:00:28.825Z,86.68
2022-12-15T01:01:31.085Z,86.89
2022-12-15T01:02:31.299Z,86.93
2022-12-15T01:03:30.336Z,88.39
2022-12-15T01:04:29.961Z,88.04
2022-12-15T01:05:30.277Z,88.24
2022-12-15T01:06:30.587Z,88.24
2022-12-15T01:07:32.774Z,88.31
2022-12-15T01:08:31.146Z,88.31
2022-12-15T01:09:33.340Z,88.10
2022-12-15T01:10:31.742Z,87.58
2022-12-15T01:11:32.043Z,87.89
2022-12-15T01:12:32.353Z,87.12
2022-12-15T01:13:33.242Z,87.02
2022-12-15T01:14:34.868Z,88.27
2022-12-15T01:15:33.256Z,87.71
2022-12-15T01:16:33.647Z,87.33
2022-12-15T01:17:33.785Z,86.67
2022-12-15T01:18:34.104Z,86.33
2022-12-15T01:19:36.284Z,87.23
2022-12-15T01:20:34.793Z,86.50
2022-12-15T01:21:35.891Z,85.98
2022-12-15T01:22:37.106Z,86.22
2022-12-15T01:23:35.564Z,86.81
2022-12-15T01:24:37.674Z,85.94
2022-12-15T01:25:36.063Z,85.39
2022-12-15T01:26:36.377Z,86.08
2022-12-15T01:27:36.685Z,85.56
2022-12-15T01:28:36.997Z,84.83
2022-12-15T01:29:39.183Z,84.70
2022-12-15T01:30:37.575Z,86.41
2022-12-15T01:31:37.919Z,87.66
2022-12-15T01:32:42.719Z,87.20
2022-12-15T01:33:39.442Z,86.61
2022-12-15T01:34:40.639Z,87.10
2022-12-15T01:35:39.028Z,86.61
2022-12-15T01:36:39.346Z,87.14
2022-12-15T01:37:39.654Z,87.55
2022-12-15T01:38:39.972Z,87.24
2022-12-15T01:39:40.316Z,87.20
2022-12-15T01:40:40.513Z,86.93
2022-12-15T01:41:40.816Z,87.66
2022-12-15T01:42:41.127Z,87.60
2022-12-15T01:43:41.431Z,87.87
2022-12-15T01:44:43.619Z,87.97
2022-12-15T01:45:42.005Z,87.55
2022-12-15T01:46:42.361Z,86.99
2022-12-15T01:47:44.492Z,86.30
2022-12-15T01:48:42.927Z,85.68
2022-12-15T01:49:43.220Z,85.58
2022-12-15T01:50:45.401Z,86.03
2022-12-15T01:51:44.801Z,85.78
2022-12-15T01:52:44.030Z,85.41
2022-12-15T01:53:46.222Z,86.07
2022-12-15T01:54:44.619Z,86.55
2022-12-15T01:55:44.841Z,86.03
2022-12-15T01:56:45.187Z,86.28
2022-12-15T01:57:46.302Z,86.76
2022-12-15T01:58:47.688Z,86.41
2022-12-15T01:59:46.079Z,85.05
2022-12-15T02:00:46.435Z,85.30
2022-12-15T02:01:49.862Z,85.82
2022-12-15T02:02:47.991Z,86.45
2022-12-15T02:03:49.145Z,86.20
2022-12-15T02:04:48.458Z,86.13
2022-12-15T02:05:49.711Z,86.35
2022-12-15T02:06:49.021Z,86.66
2022-12-15T02:07:49.176Z,86.61
2022-12-15T02:08:49.567Z,85.51
2022-12-15T02:09:50.783Z,85.30
2022-12-15T02:10:50.978Z,85.55
2022-12-15T02:11:50.329Z,86.55
2022-12-15T02:12:49.868Z,86.03
2022-12-15T02:13:51.131Z,85.72
2022-12-15T02:14:51.323Z,85.24
2022-12-15T02:15:52.740Z,86.24
2022-12-15T02:16:51.084Z,85.72
2022-12-15T02:17:51.393Z,85.82
2022-12-15T02:18:52.658Z,85.76
2022-12-15T02:19:53.885Z,85.44
2022-12-15T02:20:54.828Z,85.51
2022-12-15T02:21:52.588Z,85.76
2022-12-15T02:22:52.900Z,86.18
2022-12-15T02:23:53.209Z,86.24
2022-12-15T02:24:54.408Z,85.27
2022-12-15T02:25:54.610Z,86.11
2022-12-15T02:26:54.115Z,86.67
2022-12-15T02:27:56.279Z,86.94
2022-12-15T02:28:56.470Z,87.26
2022-12-15T02:29:56.658Z,86.63
2022-12-15T02:30:56.847Z,86.84
2022-12-15T02:31:55.691Z,86.80
2022-12-15T02:32:57.787Z,86.24
2022-12-15T02:33:57.977Z,84.67
2022-12-15T02:34:58.168Z,86.11
2022-12-15T02:35:58.357Z,86.43
2022-12-15T02:36:59.047Z,86.59
2022-12-15T02:37:59.244Z,86.07
2022-12-15T02:38:59.447Z,85.97
2022-12-15T02:39:58.079Z,86.11
2022-12-15T02:40:58.488Z,86.45
2022-12-15T02:42:00.569Z,86.21
2022-12-15T02:42:58.945Z,86.66
2022-12-15T02:44:01.147Z,85.86
2022-12-15T02:44:59.540Z,85.82
2022-12-15T02:45:59.903Z,85.86
2022-12-15T02:47:02.036Z,86.07
2022-12-15T02:48:00.444Z,86.07
2022-12-15T02:49:00.753Z,85.82
2022-12-15T02:50:01.074Z,85.17
2022-12-15T02:51:01.373Z,87.26
2022-12-15T02:52:03.652Z,86.74
2022-12-15T02:53:01.921Z,86.67
2022-12-15T02:54:04.109Z,87.40
2022-12-15T02:55:04.313Z,88.03
2022-12-15T02:56:02.829Z,87.86
2022-12-15T02:57:03.139Z,88.49
2022-12-15T02:58:03.463Z,88.65
2022-12-15T02:59:05.645Z,87.05
2022-12-15T03:00:05.853Z,87.71
2022-12-15T03:01:06.060Z,87.09
2022-12-15T03:02:04.870Z,87.51
2022-12-15T03:03:05.049Z,87.57
2022-12-15T03:04:05.281Z,86.59
2022-12-15T03:05:05.607Z,87.49
2022-12-15T03:06:07.809Z,86.20
2022-12-15T03:07:06.198Z,85.47
2022-12-15T03:08:06.509Z,85.96
2022-12-15T03:09:06.820Z,84.04
2022-12-15T03:10:09.009Z,83.35
2022-12-15T03:11:07.389Z,84.50
2022-12-15T03:12:07.727Z,83.83
2022-12-15T03:13:08.073Z,85.16
2022-12-15T03:14:08.356Z,84.87
2022-12-15T03:15:10.545Z,84.91
2022-12-15T03:16:10.777Z,85.61
2022-12-15T03:17:09.278Z,86.47
2022-12-15T03:18:11.470Z,85.53
2022-12-15T03:19:09.857Z,85.58
2022-12-15T03:20:12.052Z,85.64
2022-12-15T03:21:10.449Z,85.47
2022-12-15T03:22:10.754Z,87.10
2022-12-15T03:23:12.935Z,86.27
2022-12-15T03:24:13.098Z,85.74
2022-12-15T03:25:11.631Z,84.94
2022-12-15T03:26:13.815Z,84.42
2022-12-15T03:27:12.191Z,84.35
2022-12-15T03:28:12.516Z,84.39
2022-12-15T03:29:12.819Z,85.08
2022-12-15T03:30:13.139Z,84.39
2022-12-15T03:31:15.379Z,85.58
2022-12-15T03:32:13.842Z,86.06
2022-12-15T03:33:14.064Z,85.53
2022-12-15T03:34:14.380Z,84.66
2022-12-15T03:35:14.688Z,83.83
2022-12-15T03:36:16.872Z,85.22
2022-12-15T03:37:15.248Z,85.96
2022-12-15T03:38:15.561Z,86.20
2022-12-15T03:39:15.870Z,86.99
2022-12-15T03:40:16.209Z,86.33
2022-12-15T03:41:18.399Z,85.35
2022-12-15T03:42:16.656Z,84.25
2022-12-15T03:43:16.980Z,83.87
2022-12-15T03:44:19.146Z,84.50
2022-12-15T03:45:19.318Z,84.43
2022-12-15T03:46:20.540Z,85.41
2022-12-15T03:47:19.686Z,86.03
2022-12-15T03:48:19.264Z,85.58
2022-12-15T03:49:19.678Z,84.28
2022-12-15T03:50:19.836Z,83.49
2022-12-15T03:51:21.305Z,83.61
2022-12-15T03:52:22.012Z,85.69
2022-12-15T03:53:21.748Z,86.57
2022-12-15T03:54:20.981Z,86.77
2022-12-15T03:55:22.192Z,86.57
2022-12-15T03:56:22.390Z,87.57
2022-12-15T03:57:21.722Z,85.86
2022-12-15T03:58:22.140Z,86.28
2022-12-15T03:59:23.401Z,84.88
2022-12-15T04:00:23.595Z,84.47
2022-12-15T04:01:23.141Z,85.17
2022-12-15T04:02:22.544Z,85.34
2022-12-15T04:03:24.668Z,85.13
2022-12-15T04:04:22.936Z,84.82
2022-12-15T04:05:23.248Z,84.92
2022-12-15T04:06:23.543Z,85.20
2022-12-15T04:07:25.708Z,83.95
2022-12-15T04:08:24.911Z,83.74
2022-12-15T04:09:26.112Z,84.22
2022-12-15T04:10:28.696Z,83.58
2022-12-15T04:11:26.081Z,80.50
2022-12-15T04:12:25.331Z,80.88
2022-12-15T04:13:25.623Z,82.17
2022-12-15T04:14:27.816Z,83.78
2022-12-15T04:15:26.196Z,84.26
2022-12-15T04:16:28.439Z,82.76
2022-12-15T04:17:26.812Z,81.05
2022-12-15T04:18:28.991Z,79.46
2022-12-15T04:19:27.383Z,81.13
2022-12-15T04:20:27.700Z,80.26
2022-12-15T04:21:28.001Z,80.61
2022-12-15T04:22:30.193Z,81.79
2022-12-15T04:23:30.693Z,83.40
2022-12-15T04:24:28.828Z,84.02
2022-12-15T04:25:29.207Z,83.92
2022-12-15T04:26:29.460Z,83.67
2022-12-15T04:27:29.769Z,83.29
2022-12-15T04:28:31.950Z,83.64
2022-12-15T04:29:32.144Z,84.44
2022-12-15T04:30:32.377Z,83.71
2022-12-15T04:31:32.604Z,83.92
2022-12-15T04:32:33.200Z,84.06
2022-12-15T04:33:33.793Z,84.69
2022-12-15T04:34:33.590Z,85.11
2022-12-15T04:35:33.781Z,85.25
2022-12-15T04:36:34.489Z,85.83
2022-12-15T04:37:32.870Z,85.52
2022-12-15T04:38:35.089Z,85.42
2022-12-15T04:39:35.349Z,85.06
2022-12-15T04:40:34.190Z,84.02
2022-12-15T04:41:35.919Z,83.40
2022-12-15T04:42:34.306Z,83.54
2022-12-15T04:43:36.495Z,83.23
2022-12-15T04:44:36.677Z,84.48
2022-12-15T04:45:36.858Z,84.75
2022-12-15T04:46:35.523Z,83.15
2022-12-15T04:47:35.792Z,82.48
2022-12-15T04:48:36.103Z,82.28
2022-12-15T04:49:36.408Z,81.76
2022-12-15T04:50:38.610Z,80.99
2022-12-15T04:51:36.986Z,79.15
2022-12-15T04:52:37.280Z,79.05
2022-12-15T04:53:37.585Z,78.28
2022-12-15T04:54:39.770Z,77.86
2022-12-15T04:55:39.931Z,77.86
2022-12-15T04:56:38.486Z,77.62
2022-12-15T04:57:38.666Z,76.47
2022-12-15T04:58:39.002Z,75.64
2022-12-15T04:59:39.307Z,75.36
2022-12-15T05:00:41.503Z,75.05
2022-12-15T05:01:40.001Z,75.18
2022-12-15T05:02:42.134Z,75.63
2022-12-15T05:03:40.498Z,77.72
2022-12-15T05:04:40.871Z,77.72
2022-12-15T05:05:41.126Z,77.31
2022-12-15T05:06:43.324Z,78.07
2022-12-15T05:07:43.502Z,80.23
2022-12-15T05:08:42.003Z,80.33
2022-12-15T05:09:42.320Z,79.67
2022-12-15T05:10:42.662Z,78.97
2022-12-15T05:11:42.935Z,79.85
2022-12-15T05:12:45.135Z,81.31
2022-12-15T05:13:45.322Z,81.21
2022-12-15T05:14:43.831Z,80.37
2022-12-15T05:15:44.201Z,80.27
2022-12-15T05:16:44.476Z,79.74
2022-12-15T05:17:46.652Z,79.91
2022-12-15T05:18:45.150Z,80.09
2022-12-15T05:19:47.313Z,78.63
2022-12-15T05:20:45.705Z,77.06
2022-12-15T05:21:46.010Z,76.96
2022-12-15T05:22:48.208Z,77.24
2022-12-15T05:23:46.612Z,78.94
2022-12-15T05:24:46.925Z,80.20
2022-12-15T05:25:47.229Z,80.76
2022-12-15T05:26:52.320Z,81.28
2022-12-15T05:27:51.675Z,81.38
2022-12-15T05:28:50.871Z,81.70
2022-12-15T05:29:48.518Z,82.15
2022-12-15T05:30:49.496Z,82.82
2022-12-15T05:31:50.073Z,83.13
2022-12-15T05:32:50.234Z,83.03
2022-12-15T05:33:50.665Z,83.23
2022-12-15T05:34:52.791Z,83.13
2022-12-15T05:35:51.185Z,82.92
2022-12-15T05:36:51.394Z,83.27
2022-12-15T05:37:51.555Z,83.48
2022-12-15T05:38:51.961Z,83.72
2022-12-15T05:39:53.320Z,82.95
2022-12-15T05:40:51.586Z,81.97
2022-12-15T05:41:51.897Z,81.06
2022-12-15T05:42:55.011Z,79.11
2022-12-15T05:43:52.524Z,78.66
2022-12-15T05:44:55.661Z,77.83
2022-12-15T05:45:53.906Z,78.07
2022-12-15T05:46:54.320Z,79.11
2022-12-15T05:47:54.684Z,78.66
2022-12-15T05:48:54.846Z,78.25
2022-12-15T05:49:56.120Z,77.20
2022-12-15T05:50:55.419Z,75.46
2022-12-15T05:51:55.581Z,74.94
2022-12-15T05:52:55.996Z,75.26
2022-12-15T05:53:57.262Z,75.05
2022-12-15T05:54:57.453Z,74.63
2022-12-15T05:55:55.966Z,73.79
2022-12-15T05:56:58.155Z,73.62
2022-12-15T05:57:56.538Z,73.30
2022-12-15T05:58:58.742Z,73.34
2022-12-15T05:59:58.911Z,73.65
2022-12-15T06:00:57.433Z,73.75
2022-12-15T06:01:57.740Z,73.75
2022-12-15T06:02:59.995Z,74.18
2022-12-15T06:04:00.120Z,75.95
2022-12-15T06:04:58.692Z,76.65
2022-12-15T06:06:00.812Z,76.61
2022-12-15T06:07:01.005Z,75.98
2022-12-15T06:08:01.196Z,75.26
2022-12-15T06:08:59.831Z,74.94
2022-12-15T06:10:00.138Z,74.63
2022-12-15T06:11:03.082Z,74.32
2022-12-15T06:12:02.269Z,73.58
2022-12-15T06:13:01.031Z,74.87
2022-12-15T06:14:03.214Z,76.54
2022-12-15T06:15:03.401Z,76.47
2022-12-15T06:16:03.670Z,77.34
2022-12-15T06:17:03.787Z,77.10
2022-12-15T06:18:03.940Z,79.30
2022-12-15T06:19:04.641Z,80.03
2022-12-15T06:20:04.834Z,83.35
2022-12-15T06:21:05.029Z,85.47
2022-12-15T06:22:05.230Z,85.33
2022-12-15T06:23:03.986Z,85.50
2022-12-15T06:24:06.178Z,85.00
2022-12-15T06:25:06.425Z,83.61
2022-12-15T06:26:06.630Z,83.01
2022-12-15T06:27:06.804Z,81.45
2022-12-15T06:28:05.980Z,81.51
2022-12-15T06:29:07.676Z,80.74
2022-12-15T06:30:06.062Z,82.38
2022-12-15T06:31:08.298Z,82.51
2022-12-15T06:32:06.627Z,81.12
2022-12-15T06:33:06.942Z,80.36
2022-12-15T06:34:07.279Z,79.35
2022-12-15T06:35:07.602Z,77.89
2022-12-15T06:36:09.811Z,77.96
2022-12-15T06:37:08.199Z,79.21
2022-12-15T06:38:08.523Z,79.38
2022-12-15T06:39:10.718Z,79.17
2022-12-15T06:40:09.107Z,79.24
2022-12-15T06:41:11.305Z,78.58
2022-12-15T06:42:09.719Z,78.48
2022-12-15T06:43:11.935Z,77.51
2022-12-15T06:44:10.320Z,77.30
2022-12-15T06:45:12.488Z,77.09
2022-12-15T06:46:12.695Z,76.89
2022-12-15T06:47:11.230Z,76.37
2022-12-15T06:48:13.392Z,76.51
2022-12-15T06:49:11.778Z,77.44
2022-12-15T06:50:12.085Z,77.96
2022-12-15T06:51:16.843Z,78.34
2022-12-15T06:52:15.568Z,77.78
2022-12-15T06:53:14.834Z,76.95
2022-12-15T06:54:13.229Z,76.89
2022-12-15T06:55:13.539Z,75.85
2022-12-15T06:56:15.182Z,75.32
2022-12-15T06:57:14.169Z,75.22
2022-12-15T06:58:16.358Z,74.95
2022-12-15T06:59:14.744Z,75.29
2022-12-15T07:00:16.933Z,77.03
2022-12-15T07:01:15.466Z,78.17
2022-12-15T07:02:19.244Z,78.73
2022-12-15T07:03:16.156Z,79.46
2022-12-15T07:04:16.356Z,79.25
2022-12-15T07:05:18.407Z,80.22
2022-12-15T07:06:16.801Z,80.54
2022-12-15T07:07:18.953Z,80.54
2022-12-15T07:08:17.457Z,80.74
2022-12-15T07:09:17.775Z,80.50
2022-12-15T07:10:19.984Z,79.56
2022-12-15T07:11:18.359Z,79.98
2022-12-15T07:12:18.686Z,80.50
2022-12-15T07:13:18.987Z,79.94
2022-12-15T07:14:19.334Z,79.63
2022-12-15T07:15:21.516Z,79.73
2022-12-15T07:16:20.053Z,79.66
2022-12-15T07:17:20.215Z,81.05
2022-12-15T07:18:22.372Z,81.93
2022-12-15T07:19:22.565Z,82.90
2022-12-15T07:20:27.020Z,83.42
2022-12-15T07:21:22.429Z,83.88
2022-12-15T07:22:23.619Z,84.30
2022-12-15T07:23:39.708Z,84.65
2022-12-15T07:24:24.383Z,85.17
2022-12-15T07:25:22.656Z,85.27
2022-12-15T07:26:25.837Z,85.27
2022-12-15T07:27:26.000Z,86.15
2022-12-15T07:28:27.351Z,86.32
2022-12-15T07:29:24.802Z,86.43
2022-12-15T07:30:25.080Z,86.32
2022-12-15T07:31:25.494Z,85.86
2022-12-15T07:32:25.661Z,85.61
2022-12-15T07:33:26.895Z,85.30
2022-12-15T07:34:26.240Z,85.05
2022-12-15T07:35:27.480Z,84.95
2022-12-15T07:36:26.810Z,85.02
2022-12-15T07:37:26.198Z,84.39
2022-12-15T07:38:26.534Z,84.18
2022-12-15T07:39:28.714Z,84.84
2022-12-15T07:40:27.964Z,84.95
2022-12-15T07:41:27.347Z,85.26
2022-12-15T07:42:27.681Z,85.33
2022-12-15T07:43:31.459Z,85.36
2022-12-15T07:44:29.127Z,85.36
2022-12-15T07:45:29.595Z,85.64
2022-12-15T07:46:29.211Z,84.98
2022-12-15T07:47:30.104Z,84.06
2022-12-15T07:48:31.488Z,83.47
2022-12-15T07:49:30.686Z,81.98
2022-12-15T07:50:30.281Z,80.59
2022-12-15T07:51:31.453Z,79.65
2022-12-15T07:52:33.659Z,78.72
2022-12-15T07:53:33.329Z,78.23
2022-12-15T07:54:33.050Z,77.92
2022-12-15T07:55:57.233Z,77.23
2022-12-15T07:56:38.858Z,77.69
2022-12-15T07:57:34.109Z,78.34
2022-12-15T07:58:33.313Z,78.45
2022-12-15T07:59:33.482Z,79.59
2022-12-15T08:00:33.131Z,79.49
2022-12-15T08:01:35.435Z,79.91
2022-12-15T08:02:35.643Z,80.01
2022-12-15T08:03:36.406Z,80.11
2022-12-15T08:04:34.266Z,80.46
2022-12-15T08:05:36.430Z,81.05
2022-12-15T08:06:34.721Z,81.72
2022-12-15T08:07:35.061Z,81.99
2022-12-15T08:08:37.310Z,81.68
2022-12-15T08:09:35.634Z,81.72
2022-12-15T08:10:37.829Z,81.82
2022-12-15T08:11:36.233Z,82.14
2022-12-15T08:12:38.433Z,81.82
2022-12-15T08:14:01.871Z,81.62
2022-12-15T08:14:38.169Z,81.69
2022-12-15T08:15:39.477Z,83.29
2022-12-15T08:16:39.688Z,84.19
2022-12-15T08:17:38.079Z,84.72
2022-12-15T08:18:40.284Z,85.20
2022-12-15T08:19:38.689Z,84.47
2022-12-15T08:20:40.881Z,84.84
2022-12-15T08:21:39.288Z,84.70
2022-12-15T08:22:41.448Z,84.08
2022-12-15T08:23:41.631Z,83.87
2022-12-15T08:24:40.164Z,83.62
2022-12-15T08:25:42.345Z,83.44
2022-12-15T08:26:41.722Z,82.57
2022-12-15T08:27:41.000Z,82.51
2022-12-15T08:28:41.358Z,82.22
2022-12-15T08:29:52.111Z,81.60
2022-12-15T08:30:42.970Z,80.80
2022-12-15T08:31:43.344Z,82.23
2022-12-15T08:32:45.044Z,82.51
2022-12-15T08:33:43.721Z,82.61
2022-12-15T08:34:44.901Z,82.46
2022-12-15T08:35:56.421Z,82.71
2022-12-15T08:36:46.475Z,83.37
2022-12-15T08:37:43.900Z,83.48
2022-12-15T08:38:44.267Z,84.21
2022-12-15T08:39:46.443Z,84.80
2022-12-15T08:40:44.735Z,84.83
2022-12-15T08:41:46.072Z,85.31
2022-12-15T08:42:45.354Z,84.86
2022-12-15T08:43:48.571Z,84.55
2022-12-15T08:44:47.852Z,84.59
2022-12-15T08:45:46.344Z,84.69
2022-12-15T08:46:46.552Z,85.52
2022-12-15T08:47:48.757Z,86.11
2022-12-15T08:48:47.246Z,85.55
2022-12-15T08:49:49.360Z,85.13
2022-12-15T08:50:47.775Z,84.78
2022-12-15T08:51:49.950Z,84.60
2022-12-15T08:53:13.880Z,83.73
2022-12-15T08:53:49.934Z,82.51
2022-12-15T08:54:49.172Z,80.85
2022-12-15T08:55:49.224Z,80.65
2022-12-15T08:56:51.414Z,80.61
2022-12-15T08:57:49.829Z,79.92
2022-12-15T08:58:52.023Z,80.33
2022-12-15T08:59:50.476Z,80.62
2022-12-15T09:00:50.797Z,81.45
2022-12-15T09:01:53.023Z,81.66
2022-12-15T09:02:51.381Z,82.45
2022-12-15T09:03:53.589Z,81.82
2022-12-15T09:04:51.940Z,81.75
2022-12-15T09:05:52.395Z,80.44
2022-12-15T09:06:54.416Z,80.82
2022-12-15T09:07:52.714Z,79.99
2022-12-15T09:08:54.908Z,79.95
2022-12-15T09:09:55.096Z,79.13
2022-12-15T09:10:54.654Z,79.27
2022-12-15T09:11:55.847Z,79.51
2022-12-15T09:12:54.267Z,81.14
2022-12-15T09:13:54.612Z,82.11
2022-12-15T09:14:54.948Z,82.98
2022-12-15T09:16:12.476Z,84.16
2022-12-15T09:16:58.373Z,84.60
2022-12-15T09:17:55.852Z,83.87
2022-12-15T09:18:58.069Z,84.01
2022-12-15T09:19:56.460Z,84.12
2022-12-15T09:20:56.808Z,84.84
2022-12-15T09:21:59.956Z,84.84
2022-12-15T09:22:57.381Z,85.30
2022-12-15T09:23:59.548Z,86.24
2022-12-15T09:24:57.839Z,86.09
2022-12-15T09:25:58.187Z,85.85
2022-12-15T09:27:00.339Z,85.19
2022-12-15T09:28:00.526Z,85.26
2022-12-15T09:29:01.665Z,85.88
2022-12-15T09:30:00.267Z,86.09
2022-12-15T09:30:59.703Z,86.19
2022-12-15T09:32:00.819Z,86.30
2022-12-15T09:33:01.185Z,86.68
2022-12-15T09:34:02.465Z,86.02
2022-12-15T09:35:02.606Z,85.25
2022-12-15T09:36:01.016Z,84.94
2022-12-15T09:37:01.252Z,84.63
2022-12-15T09:38:02.299Z,84.55
2022-12-15T09:39:03.696Z,83.78
2022-12-15T09:40:02.876Z,82.58
2022-12-15T09:41:04.208Z,83.37
2022-12-15T09:42:04.396Z,82.72
2022-12-15T09:43:32.984Z,84.07
2022-12-15T09:44:04.155Z,83.83
2022-12-15T09:45:03.447Z,84.11
2022-12-15T09:46:03.844Z,84.80
2022-12-15T09:47:05.001Z,84.80
2022-12-15T09:48:04.267Z,84.69
2022-12-15T09:49:04.602Z,85.56
2022-12-15T09:50:06.809Z,85.77
2022-12-15T09:51:06.998Z,85.73
2022-12-15T09:52:11.116Z,85.21
2022-12-15T09:53:23.126Z,85.63
2022-12-15T09:54:07.041Z,85.46
2022-12-15T09:55:08.287Z,85.38
2022-12-15T09:56:06.553Z,84.63
2022-12-15T09:57:06.902Z,85.46
2022-12-15T09:58:10.944Z,85.63
2022-12-15T09:59:08.437Z,85.27
2022-12-15T10:00:07.844Z,84.55
2022-12-15T10:01:08.183Z,84.63
2022-12-15T10:02:10.488Z,86.08
2022-12-15T10:03:10.688Z,86.25
2022-12-15T10:04:10.846Z,85.97
2022-12-15T10:05:10.950Z,85.87
2022-12-15T10:06:21.549Z,86.18
2022-12-15T10:07:12.142Z,86.43
2022-12-15T10:08:12.159Z,87.74
2022-12-15T10:09:12.342Z,87.26
2022-12-15T10:10:10.751Z,86.60
2022-12-15T10:11:11.090Z,86.45
2022-12-15T10:12:11.427Z,86.15
2022-12-15T10:13:11.776Z,86.12
2022-12-15T10:14:13.954Z,86.70
2022-12-15T10:15:12.367Z,87.35
2022-12-15T10:16:12.753Z,85.13
2022-12-15T10:17:14.885Z,84.12
2022-12-15T10:18:13.319Z,83.50
2022-12-15T10:19:15.470Z,82.50
2022-12-15T10:20:15.634Z,81.77
2022-12-15T10:21:15.803Z,81.42
2022-12-15T10:22:15.992Z,80.46
2022-12-15T10:23:14.842Z,80.29
2022-12-15T10:24:31.614Z,80.22
2022-12-15T10:26:16.827Z,80.30
2022-12-15T10:27:15.855Z,80.61
2022-12-15T10:28:18.045Z,80.40
2022-12-15T10:29:16.472Z,80.61
2022-12-15T10:30:16.813Z,79.68
2022-12-15T10:31:17.034Z,80.19
2022-12-15T10:32:17.338Z,79.78
2022-12-15T10:33:17.704Z,80.68
2022-12-15T10:34:19.933Z,81.58
2022-12-15T10:35:18.200Z,80.51
2022-12-15T10:36:18.535Z,80.09
2022-12-15T10:37:18.878Z,80.12
2022-12-15T10:38:21.054Z,79.85
2022-12-15T10:39:19.496Z,79.91
2022-12-15T10:40:19.741Z,79.60
2022-12-15T10:41:21.894Z,79.40
2022-12-15T10:42:20.298Z,79.40
2022-12-15T10:43:22.491Z,78.88
2022-12-15T10:44:25.946Z,78.81
2022-12-15T10:45:22.115Z,79.33
2022-12-15T10:46:21.487Z,79.16
2022-12-15T10:47:23.619Z,79.37
2022-12-15T10:48:22.028Z,79.99
2022-12-15T10:49:24.204Z,79.50
2022-12-15T10:50:24.792Z,78.64
2022-12-15T10:51:22.909Z,77.70
2022-12-15T10:52:23.270Z,77.43
2022-12-15T10:53:23.600Z,77.64
2022-12-15T10:54:25.768Z,79.30
2022-12-15T10:55:24.182Z,79.58
2022-12-15T10:56:32.847Z,79.71
2022-12-15T10:57:27.549Z,80.44
2022-12-15T10:58:24.966Z,80.19
2022-12-15T10:59:25.196Z,79.51
2022-12-15T11:00:25.426Z,80.68
2022-12-15T11:01:25.936Z,81.68
2022-12-15T11:02:28.034Z,79.96
2022-12-15T11:03:26.589Z,81.87
2022-12-15T11:04:28.591Z,81.90
2022-12-15T11:05:26.912Z,82.56
2022-12-15T11:06:27.129Z,83.47
2022-12-15T11:07:30.259Z,84.78
2022-12-15T11:08:28.738Z,84.84
2022-12-15T11:09:29.147Z,84.53
2022-12-15T11:10:31.029Z,84.37
2022-12-15T11:11:29.472Z,84.22
2022-12-15T11:12:30.848Z,84.01
2022-12-15T11:13:34.880Z,84.99
2022-12-15T11:14:32.393Z,85.16
2022-12-15T11:15:29.786Z,84.84
2022-12-15T11:16:29.979Z,84.84
2022-12-15T11:17:30.209Z,84.70
2022-12-15T11:18:30.440Z,84.53
2022-12-15T11:19:32.631Z,84.25
2022-12-15T11:20:31.013Z,83.77
2022-12-15T11:21:31.199Z,84.60
2022-12-15T11:22:34.892Z,84.70
2022-12-15T11:23:32.118Z,84.15
2022-12-15T11:24:33.095Z,84.25
2022-12-15T11:25:35.242Z,83.84
2022-12-15T11:26:33.649Z,84.36
2022-12-15T11:27:34.844Z,85.04
2022-12-15T11:28:34.224Z,83.83
2022-12-15T11:29:35.450Z,82.41
2022-12-15T11:30:34.557Z,83.10
2022-12-15T11:31:34.968Z,82.67
2022-12-15T11:32:35.334Z,81.25
2022-12-15T11:33:38.036Z,79.80
2022-12-15T11:34:36.754Z,79.49
2022-12-15T11:35:35.162Z,79.29
2022-12-15T11:36:35.512Z,78.46
2022-12-15T11:37:36.899Z,78.53
2022-12-15T11:38:36.156Z,77.64
2022-12-15T11:39:38.269Z,78.29
2022-12-15T11:40:37.487Z,78.19
2022-12-15T11:41:37.012Z,78.95
2022-12-15T11:42:37.250Z,79.05
2022-12-15T11:43:37.517Z,79.09
2022-12-15T11:44:37.725Z,80.12
2022-12-15T11:45:39.960Z,79.36
2022-12-15T11:46:38.271Z,78.78
2022-12-15T11:47:38.506Z,80.30
2022-12-15T11:48:38.775Z,81.02
2022-12-15T11:49:41.344Z,81.89
2022-12-15T11:50:41.179Z,82.76
2022-12-15T11:51:39.581Z,83.73
2022-12-15T11:52:39.912Z,84.56
2022-12-15T11:53:40.259Z,85.02
2022-12-15T11:54:40.609Z,85.12
2022-12-15T11:55:42.772Z,85.19
2022-12-15T11:56:42.425Z,85.29
2022-12-15T11:57:43.078Z,85.42
2022-12-15T11:58:43.234Z,83.89
2022-12-15T11:59:43.928Z,82.05
2022-12-15T12:00:44.119Z,80.78
2022-12-15T12:01:52.612Z,80.99
2022-12-15T12:02:45.592Z,81.27
2022-12-15T12:03:43.279Z,82.68
2022-12-15T12:04:45.517Z,82.17
2022-12-15T12:05:46.694Z,81.96
2022-12-15T12:06:44.239Z,81.85
2022-12-15T12:07:46.421Z,82.20
2022-12-15T12:08:46.665Z,83.00
2022-12-15T12:09:46.810Z,82.29
2022-12-15T12:10:47.049Z,81.37
2022-12-15T12:11:45.735Z,82.03
2022-12-15T12:12:46.069Z,82.06
2022-12-15T12:13:46.316Z,83.26
2022-12-15T12:14:50.663Z,82.44
2022-12-15T12:15:48.695Z,82.40
2022-12-15T12:16:47.249Z,82.67
2022-12-15T12:17:47.627Z,81.49
2022-12-15T12:18:50.515Z,81.82
2022-12-15T12:19:50.888Z,82.71
2022-12-15T12:20:50.397Z,81.57
2022-12-15T12:21:50.894Z,82.15
2022-12-15T12:22:50.844Z,81.57
2022-12-15T12:23:49.265Z,82.09
2022-12-15T12:24:50.839Z,82.29
2022-12-15T12:25:51.807Z,82.29
2022-12-15T12:26:51.990Z,82.05
2022-12-15T12:27:50.574Z,81.68
2022-12-15T12:28:52.619Z,82.75
2022-12-15T12:29:52.840Z,82.92
2022-12-15T12:30:51.391Z,82.88
2022-12-15T12:31:56.489Z,82.15
2022-12-15T12:32:52.989Z,81.68
2022-12-15T12:33:54.171Z,82.98
2022-12-15T12:34:52.519Z,81.60
2022-12-15T12:35:55.688Z,80.91
2022-12-15T12:36:52.997Z,81.61
2022-12-15T12:37:55.852Z,82.29
2022-12-15T12:38:56.526Z,82.29
2022-12-15T12:39:53.949Z,82.03
2022-12-15T12:40:56.129Z,82.17
2022-12-15T12:41:54.559Z,83.59
2022-12-15T12:42:54.776Z,83.90
2022-12-15T12:43:56.964Z,85.04
2022-12-15T12:44:55.382Z,84.55
2022-12-15T12:45:55.718Z,83.34
2022-12-15T12:46:56.060Z,84.88
2022-12-15T12:47:56.386Z,84.73
2022-12-15T12:48:58.577Z,84.63
2022-12-15T12:49:57.008Z,84.94
2022-12-15T12:50:57.341Z,85.08
2022-12-15T12:51:57.683Z,85.08
2022-12-15T12:52:58.011Z,85.50
2022-12-15T12:54:00.200Z,86.05
2022-12-15T12:55:01.855Z,85.74
2022-12-15T12:56:00.587Z,85.81
2022-12-15T12:56:59.262Z,85.73